Time;durP1;ratioP1;P1;durP2;ratioP2;P2;SDS_P1;SDS_P2;PMS_P1;PMS_P2;Temp;Humidity;BMP_temperature;BMP_pressure;BME280_temperature;BME280_humidity;BME280_pressure;Samples;Min_cycle;Max_cycle;Signal;HPM_P1;HPM_P2
2023/11/09 00:01:41;;;;;;;;;;;;;;;29.52;78.10;100948.31;5101911;27;71201;-38
2023/11/09 00:04:12;;;;;;;;;;;;;;;29.56;78.17;100949.53;5100971;27;66806;-39
2023/11/09 00:06:42;;;;;;;;;;;;;;;29.60;77.31;100961.63;5099312;27;70029;-39
2023/11/09 00:09:12;;;;;;;;;;;;;;;29.61;77.11;100957.84;5101404;27;66486;-39
2023/11/09 00:11:43;;;;;;;;;;;;;;;29.64;77.36;100962.06;5099943;27;70005;-39
2023/11/09 00:14:16;;;;;;;;;;;;;;;29.67;76.91;100964.34;5099596;27;66146;-39
2023/11/09 00:16:46;;;;;;;;;;;;;;;29.67;77.90;100967.88;5102328;27;71175;-38
2023/11/09 00:19:16;;;;;;;;;;;;;;;29.63;79.26;100972.03;5071773;27;66693;-38
2023/11/09 00:21:46;;;;;;;;;;;;;;;29.66;79.47;100971.63;5078724;27;70608;-40
2023/11/09 00:24:16;;;;;;;;;;;;;;;29.66;80.11;100977.03;5102403;27;67207;-40
2023/11/09 00:26:48;;;;;;;;;;;;;;;29.72;79.61;100969.94;5103695;27;70459;-37
2023/11/09 00:29:18;;;;;;;;;;;;;;;29.76;79.97;100971.19;5105028;27;65800;-38
2023/11/09 00:31:48;;;;;;;;;;;;;;;29.79;77.27;100971.59;5084414;27;70074;-37
2023/11/09 00:34:18;;;;;;;;;;;;;;;29.83;75.75;100972.81;5104870;27;66694;-37
2023/11/09 00:36:48;;;;;;;;;;;;;;;29.89;74.56;100973.03;5084898;27;70428;-36
2023/11/09 00:39:20;;;;;;;;;;;;;;;29.92;73.31;100981.56;5086090;27;66621;-38
2023/11/09 00:41:50;;;;;;;;;;;;;;;29.96;72.41;100987.38;5104282;27;69936;-38
2023/11/09 00:44:20;;;;;;;;;;;;;;;29.99;71.84;100976.13;5101448;27;67555;-37
2023/11/09 00:46:50;;;;;;;;;;;;;;;30.02;71.78;100975.72;5101820;27;69817;-37
2023/11/09 00:49:20;;;;;;;;;;;;;;;30.04;71.51;100976.34;5084773;27;66587;-38
2023/11/09 00:51:50;;;;;;;;;;;;;;;30.08;71.21;100979.44;5080827;27;69647;-37
2023/11/09 00:54:19;;;;;;;;;;;;;;;30.10;71.21;100983.59;5083526;27;65686;-37
2023/11/09 00:56:49;;;;;;;;;;;;;;;30.12;70.71;100978.00;5101507;27;69266;-36
2023/11/09 00:59:20;;;;;;;;;;;;;;;30.14;70.83;100989.41;5081758;27;66470;-36
2023/11/09 01:01:50;;;;;;;;;;;;;;;30.15;70.28;100989.22;5083106;27;69911;-37
2023/11/09 01:04:20;;;;;;;;;;;;;;;30.16;70.22;100998.97;5102794;27;65610;-36
2023/11/09 01:06:50;;;;;;;;;;;;;;;30.20;70.39;100993.97;5084044;27;70224;-36
2023/11/09 01:09:19;;;;;;;;;;;;;;;30.22;69.85;101010.84;5084260;27;66560;-36
2023/11/09 01:11:51;;;;;;;;;;;;;;;30.23;70.09;101012.53;5081633;27;69887;-38
2023/11/09 01:14:21;;;;;;;;;;;;;;;30.24;69.75;101009.59;5102102;27;66622;-36
2023/11/09 01:16:50;;;;;;;;;;;;;;;30.25;69.75;101008.53;5101088;27;69028;-37
2023/11/09 01:19:20;;;;;;;;;;;;;;;30.27;69.89;101008.34;5100486;27;66318;-37
2023/11/09 01:21:50;;;;;;;;;;;;;;;30.28;69.63;101010.84;5101692;27;70237;-36
2023/11/09 01:24:20;;;;;;;;;;;;;;;30.31;69.61;101019.56;5102017;27;66651;-36
2023/11/09 01:26:50;;;;;;;;;;;;;;;30.32;69.27;101015.81;5100229;27;69561;-37
2023/11/09 01:29:21;;;;;;;;;;;;;;;30.34;69.49;101011.00;5102047;27;66596;-37
2023/11/09 01:31:54;;;;;;;;;;;;;;;30.36;69.35;101022.47;5084107;27;69138;-36
2023/11/09 01:34:24;;;;;;;;;;;;;;;30.37;69.17;101019.56;5100295;27;66841;-37
2023/11/09 01:36:54;;;;;;;;;;;;;;;30.40;69.30;101015.59;5101568;27;70245;-37
2023/11/09 01:39:24;;;;;;;;;;;;;;;30.42;69.36;101021.59;5084165;27;66654;-36
2023/11/09 01:41:54;;;;;;;;;;;;;;;30.44;69.13;101027.63;5099896;27;70131;-37
2023/11/09 01:44:24;;;;;;;;;;;;;;;30.46;69.39;101020.16;5083620;27;66829;-38
2023/11/09 01:46:54;;;;;;;;;;;;;;;30.47;69.21;101016.38;5079205;27;69965;-37
2023/11/09 01:49:24;;;;;;;;;;;;;;;30.49;69.37;101011.59;5099778;27;66753;-39
2023/11/09 01:51:54;;;;;;;;;;;;;;;30.51;68.87;101023.03;5082435;27;69960;-36
2023/11/09 01:54:26;;;;;;;;;;;;;;;30.54;69.03;101017.19;5101158;27;66895;-37
2023/11/09 01:56:56;;;;;;;;;;;;;;;30.56;69.42;101019.69;5077053;27;69839;-37
2023/11/09 01:59:28;;;;;;;;;;;;;;;30.56;69.24;101009.66;5083080;27;66558;-37
2023/11/09 02:01:59;;;;;;;;;;;;;;;30.59;69.11;101011.13;5080801;27;70420;-37
2023/11/09 02:04:29;;;;;;;;;;;;;;;30.61;68.87;101023.41;5078279;27;66640;-37
2023/11/09 02:06:59;;;;;;;;;;;;;;;30.62;68.81;101019.66;5083409;27;69818;-37
2023/11/09 02:09:30;;;;;;;;;;;;;;;30.65;68.66;101019.22;5074189;27;66037;-36
2023/11/09 02:12:00;;;;;;;;;;;;;;;30.66;68.94;101023.59;5079282;27;69925;-37
2023/11/09 02:14:30;;;;;;;;;;;;;;;30.69;68.85;101025.03;5082384;27;65821;-37
2023/11/09 02:17:03;;;;;;;;;;;;;;;30.72;68.57;101025.44;5077900;27;70535;-36
2023/11/09 02:19:33;;;;;;;;;;;;;;;30.73;68.67;101013.56;5096851;27;66265;-36
2023/11/09 02:22:03;;;;;;;;;;;;;;;30.76;68.53;101015.00;5077821;27;70074;-36
2023/11/09 02:24:34;;;;;;;;;;;;;;;30.78;68.40;101012.91;5101407;27;66979;-37
2023/11/09 02:27:05;;;;;;;;;;;;;;;30.80;68.67;101004.59;5081323;27;70360;-36
2023/11/09 02:29:39;;;;;;;;;;;;;;;30.82;68.46;100997.09;5083045;27;66439;-37
2023/11/09 02:32:09;;;;;;;;;;;;;;;30.84;68.46;100994.97;5081255;27;70592;-37
2023/11/09 02:34:42;;;;;;;;;;;;;;;30.87;68.82;101010.78;5078235;27;59625;-37
2023/11/09 02:37:12;;;;;;;;;;;;;;;30.89;68.14;101000.59;5079985;27;70978;-37
2023/11/09 02:39:41;;;;;;;;;;;;;;;30.91;68.45;100993.91;5080964;27;65989;-38
2023/11/09 02:42:14;;;;;;;;;;;;;;;30.93;68.54;100999.13;5100748;27;70361;-37
2023/11/09 02:44:44;;;;;;;;;;;;;;;30.96;68.02;100989.72;5100849;27;66910;-37
2023/11/09 02:47:14;;;;;;;;;;;;;;;30.98;68.51;100990.31;5095935;27;70700;-36
2023/11/09 02:49:44;;;;;;;;;;;;;;;31.00;68.44;100994.47;5098205;27;66553;-36
2023/11/09 02:52:14;;;;;;;;;;;;;;;31.03;68.12;100994.03;5100451;27;69882;-37
2023/11/09 02:54:44;;;;;;;;;;;;;;;31.05;67.91;100991.94;5096921;27;67072;-37
2023/11/09 02:57:14;;;;;;;;;;;;;;;31.07;68.18;100989.84;5075641;27;70377;-38
2023/11/09 02:59:45;;;;;;;;;;;;;;;31.09;68.02;100986.91;5070589;27;66744;-37
2023/11/09 03:02:15;;;;;;;;;;;;;;;31.11;68.20;100990.22;5098801;27;70305;-36
2023/11/09 03:04:46;;;;;;;;;;;;;;;31.12;67.60;100981.91;5100163;27;66026;-36
2023/11/09 03:07:17;;;;;;;;;;;;;;;31.14;67.71;100979.78;5100830;27;70009;-37
2023/11/09 03:09:47;;;;;;;;;;;;;;;31.16;67.91;100972.25;5099597;27;67344;-36
2023/11/09 03:12:16;;;;;;;;;;;;;;;31.19;67.94;100964.75;5099414;27;69731;-37
2023/11/09 03:14:46;;;;;;;;;;;;;;;31.21;67.92;100958.06;5082576;27;66890;-36
2023/11/09 03:17:16;;;;;;;;;;;;;;;31.22;67.93;100954.28;5082030;27;70241;-37
2023/11/09 03:19:46;;;;;;;;;;;;;;;31.25;67.92;100950.31;5100981;27;66838;-37
2023/11/09 03:22:16;;;;;;;;;;;;;;;31.28;67.76;100952.56;5101438;27;69715;-37
2023/11/09 03:24:46;;;;;;;;;;;;;;;31.29;67.45;100956.97;5100053;27;66802;-38
2023/11/09 03:27:16;;;;;;;;;;;;;;;31.30;67.99;100950.47;5100393;27;70370;-46
2023/11/09 03:29:46;;;;;;;;;;;;;;;31.32;67.83;100956.53;5083003;27;66120;-36
2023/11/09 03:32:16;;;;;;;;;;;;;;;31.34;67.45;100948.97;5100022;27;70594;-37
2023/11/09 03:34:47;;;;;;;;;;;;;;;31.34;67.36;100951.69;5082354;27;66998;-36
2023/11/09 03:37:17;;;;;;;;;;;;;;;31.37;67.32;100940.44;5099830;27;70555;-37
2023/11/09 03:39:47;;;;;;;;;;;;;;;31.38;67.46;100942.09;5098854;27;66964;-38
2023/11/09 03:42:17;;;;;;;;;;;;;;;31.14;67.51;100897.66;5100601;27;69766;-37
2023/11/09 03:44:47;;;;;;;;;;;;;;;31.40;67.26;100923.75;5101631;27;66874;-36
2023/11/09 03:47:17;;;;;;;;;;;;;;;31.41;67.10;100914.56;5088946;27;70661;-37
2023/11/09 03:49:47;;;;;;;;;;;;;;;31.44;67.45;100908.69;5100866;27;65920;-37
2023/11/09 03:52:17;;;;;;;;;;;;;;;31.45;67.08;100910.31;5101749;27;69896;-36
2023/11/09 03:54:47;;;;;;;;;;;;;;;31.47;67.26;100902.81;5099445;27;65959;-38
2023/11/09 03:57:17;;;;;;;;;;;;;;;31.50;67.10;100907.78;5082273;27;69996;-36
2023/11/09 03:59:47;;;;;;;;;;;;;;;31.23;67.08;100857.56;5100190;27;67058;-36
2023/11/09 04:02:17;;;;;;;;;;;;;;;31.53;66.92;100910.03;5104570;27;70486;-36
2023/11/09 04:04:47;;;;;;;;;;;;;;;31.57;67.06;100899.59;5099850;27;66999;-36
2023/11/09 04:07:17;;;;;;;;;;;;;;;31.59;67.17;100889.34;5104867;27;69336;-42
2023/11/09 04:09:47;;;;;;;;;;;;;;;31.60;67.19;100891.84;5102655;27;66152;-37
2023/11/09 04:12:17;;;;;;;;;;;;;;;31.63;66.69;100889.72;5103487;27;69766;-37
2023/11/09 04:14:47;;;;;;;;;;;;;;;31.65;66.92;100876.75;5085886;27;66857;-37
2023/11/09 04:17:18;;;;;;;;;;;;;;;31.67;66.67;100877.38;5104510;27;70408;-37
2023/11/09 04:19:48;;;;;;;;;;;;;;;31.68;66.62;100871.72;5085798;27;66738;-37
2023/11/09 04:22:18;;;;;;;;;;;;;;;31.71;66.79;100876.69;5103197;27;70796;-35
2023/11/09 04:24:48;;;;;;;;;;;;;;;31.73;66.86;100871.03;5106106;27;66564;-37
2023/11/09 04:27:18;;;;;;;;;;;;;;;31.74;66.89;100870.00;5104181;27;69458;-37
2023/11/09 04:29:49;;;;;;;;;;;;;;;31.76;66.74;100873.28;5103540;27;65991;-37
2023/11/09 04:32:19;;;;;;;;;;;;;;;31.77;66.59;100870.38;5103867;27;69431;-37
2023/11/09 04:34:49;;;;;;;;;;;;;;;31.80;66.45;100875.34;5103135;27;66861;-37
2023/11/09 04:37:21;;;;;;;;;;;;;;;31.70;66.67;100855.22;5101178;27;70329;-36
2023/11/09 04:39:57;;;;;;;;;;;;;;;31.84;66.50;100870.28;5102726;27;66212;-37
2023/11/09 04:42:29;;;;;;;;;;;;;;;31.86;66.36;100868.16;5100197;27;70596;-36
2023/11/09 04:45:00;;;;;;;;;;;;;;;31.89;66.46;100865.00;5101045;27;67082;-37
2023/11/09 04:47:30;;;;;;;;;;;;;;;31.90;66.28;100858.53;5101568;27;70575;-36
2023/11/09 04:50:01;;;;;;;;;;;;;;;31.35;66.11;100764.47;5095344;27;66205;-37
2023/11/09 04:52:32;;;;;;;;;;;;;;;31.94;66.21;100854.31;5100955;27;71441;-38
2023/11/09 04:55:14;;;;;;;;;;;;;;;31.96;66.03;100841.38;5084208;27;66064;-37
2023/11/09 05:08:56;;;;;;;;;;;;;;;32.08;65.67;100821.59;5101188;27;70515;-36
2023/11/09 05:11:28;;;;;;;;;;;;;;;32.08;65.76;100816.16;5084676;27;67205;-37
2023/11/09 05:13:57;;;;;;;;;;;;;;;32.11;65.67;100807.56;5081919;27;69037;-37
2023/11/09 05:16:31;;;;;;;;;;;;;;;32.12;65.64;100811.94;5084038;27;66159;-38
2023/11/09 05:19:02;;;;;;;;;;;;;;;32.15;65.52;100806.03;5101323;27;70472;-36
2023/11/09 05:21:32;;;;;;;;;;;;;;;32.16;65.61;100802.28;5102105;27;65314;-37
2023/11/09 05:24:02;;;;;;;;;;;;;;;32.18;65.33;100797.44;5101826;27;69643;-37
2023/11/09 05:26:34;;;;;;;;;;;;;;;32.21;65.35;100797.00;5099146;27;65574;-36
2023/11/09 05:29:05;;;;;;;;;;;;;;;32.22;65.41;100790.50;5087802;27;70181;-36
2023/11/09 05:31:35;;;;;;;;;;;;;;;32.24;65.27;100793.81;5098307;27;65914;-38
2023/11/09 05:34:05;;;;;;;;;;;;;;;32.26;65.18;100791.66;5071789;27;70214;-36
2023/11/09 05:36:35;;;;;;;;;;;;;;;32.29;65.31;100785.81;5102249;27;66582;-37
2023/11/09 05:39:05;;;;;;;;;;;;;;;32.30;65.16;100775.78;5093244;27;69934;-37
2023/11/09 05:41:35;;;;;;;;;;;;;;;32.33;65.09;100778.84;5100365;27;65733;-37
2023/11/09 05:44:04;;;;;;;;;;;;;;;32.34;64.89;100775.06;5102269;27;70403;-37
2023/11/09 05:46:34;;;;;;;;;;;;;;;32.37;64.97;100771.03;5097632;27;67108;-37
2023/11/09 05:49:04;;;;;;;;;;;;;;;32.38;64.95;100768.13;5098983;27;70755;-37
2023/11/09 05:51:39;;;;;;;;;;;;;;;32.40;64.81;100766.00;5098634;27;66686;-38
2023/11/09 05:54:09;;;;;;;;;;;;;;;32.42;64.79;100763.84;5100879;27;68131;-37
2023/11/09 05:56:40;;;;;;;;;;;;;;;32.44;64.72;100761.75;5100634;27;66286;-37
2023/11/09 05:59:10;;;;;;;;;;;;;;;32.46;64.85;100753.41;5100879;27;70075;-37
2023/11/09 06:01:42;;;;;;;;;;;;;;;32.47;64.60;100744.19;5102327;27;66666;-38
2023/11/09 06:04:12;;;;;;;;;;;;;;;32.49;64.63;100742.91;5101616;27;70431;-37
2023/11/09 06:06:43;;;;;;;;;;;;;;;32.51;64.51;100742.66;5102411;27;65513;-37
2023/11/09 06:09:15;;;;;;;;;;;;;;;32.52;64.56;100733.47;5102469;27;70202;-37
2023/11/09 06:11:46;;;;;;;;;;;;;;;32.53;64.36;100720.69;5102188;27;67059;-37
2023/11/09 06:14:17;;;;;;;;;;;;;;;32.55;64.55;100721.31;5101891;27;69462;-39
2023/11/09 06:16:47;;;;;;;;;;;;;;;32.58;64.40;100715.41;5084781;27;66301;-38
2023/11/09 06:19:17;;;;;;;;;;;;;;;32.59;64.21;100714.31;5084291;27;69423;-39
2023/11/09 06:21:51;;;;;;;;;;;;;;;32.60;64.24;100703.25;5101565;27;66964;-37
2023/11/09 06:24:20;;;;;;;;;;;;;;;32.63;63.99;100693.78;5100442;27;69855;-40
2023/11/09 06:26:51;;;;;;;;;;;;;;;32.66;64.05;100687.88;5101713;27;66973;-37
2023/11/09 06:29:21;;;;;;;;;;;;;;;32.67;64.02;100687.63;5101099;27;70593;-38
2023/11/09 06:31:52;;;;;;;;;;;;;;;32.69;63.82;100681.97;5081648;27;66175;-37
2023/11/09 06:34:22;;;;;;;;;;;;;;;32.71;63.95;100679.84;5076553;27;69872;-37
2023/11/09 06:36:52;;;;;;;;;;;;;;;32.74;63.69;100670.41;5100911;27;65914;-38
2023/11/09 06:39:22;;;;;;;;;;;;;;;32.75;63.73;100670.16;5099804;27;70472;-37
2023/11/09 06:41:52;;;;;;;;;;;;;;;32.77;63.82;100662.59;5104774;27;66843;-38
2023/11/09 06:44:22;;;;;;;;;;;;;;;32.78;63.84;100661.53;5106731;27;70295;-37
2023/11/09 06:46:52;;;;;;;;;;;;;;;32.83;63.62;100666.25;5105961;27;66329;-37
2023/11/09 06:49:22;;;;;;;;;;;;;;;32.84;63.70;100662.47;5102088;27;69512;-37
2023/11/09 06:51:53;;;;;;;;;;;;;;;32.86;63.39;100661.16;5088958;27;67075;-36
2023/11/09 06:54:23;;;;;;;;;;;;;;;32.89;63.37;100662.56;5100491;27;69741;-37
2023/11/09 06:56:53;;;;;;;;;;;;;;;32.90;63.39;100667.78;5083669;27;65564;-38
2023/11/09 06:59:23;;;;;;;;;;;;;;;32.94;63.41;100668.13;5084361;27;69929;-37
2023/11/09 07:01:54;;;;;;;;;;;;;;;32.96;63.22;100654.28;5099412;27;66444;-37
2023/11/09 07:04:25;;;;;;;;;;;;;;;32.98;63.40;100647.53;5101568;27;69627;-38
2023/11/09 07:06:55;;;;;;;;;;;;;;;33.01;63.24;100638.13;5078912;27;66000;-38
2023/11/09 07:09:25;;;;;;;;;;;;;;;33.04;62.98;100634.91;5098899;27;69731;-37
2023/11/09 07:11:55;;;;;;;;;;;;;;;33.06;63.17;100627.34;5100186;27;66069;-37
2023/11/09 07:14:25;;;;;;;;;;;;;;;33.08;62.98;100627.94;5100699;27;70476;-37
2023/11/09 07:16:55;;;;;;;;;;;;;;;33.10;62.89;100629.34;5100338;27;66074;-37
2023/11/09 07:19:25;;;;;;;;;;;;;;;33.13;62.90;100611.75;5100999;27;69920;-37
2023/11/09 07:21:54;;;;;;;;;;;;;;;33.15;63.25;100598.72;5098565;27;67101;-37
2023/11/09 07:24:26;;;;;;;;;;;;;;;33.18;62.79;100592.78;5100410;27;70506;-37
2023/11/09 07:26:56;;;;;;;;;;;;;;;33.21;62.65;100584.19;5100975;27;66637;-38
2023/11/09 07:29:26;;;;;;;;;;;;;;;33.24;62.61;100578.25;5100299;27;69619;-38
2023/11/09 07:31:56;;;;;;;;;;;;;;;33.25;62.66;100579.91;5099886;27;67076;-37
2023/11/09 07:34:27;;;;;;;;;;;;;;;33.28;62.59;100587.56;5105579;27;69918;-37
2023/11/09 07:36:58;;;;;;;;;;;;;;;33.31;62.48;100581.63;5106327;27;66517;-37
2023/11/09 07:39:29;;;;;;;;;;;;;;;33.32;62.86;100568.84;5106873;27;70659;-37
2023/11/09 07:41:59;;;;;;;;;;;;;;;33.35;62.72;100555.63;5089040;27;66604;-37
2023/11/09 07:44:30;;;;;;;;;;;;;;;33.38;62.71;100541.53;5106178;27;70075;-38
2023/11/09 07:47:00;;;;;;;;;;;;;;;33.42;62.48;100551.91;5071904;27;66946;-39
2023/11/09 07:49:30;;;;;;;;;;;;;;;33.46;63.05;100562.06;5107347;27;70541;-38
2023/11/09 07:52:01;;;;;;;;;;;;;;;33.50;62.95;100546.06;5105584;27;66511;-37
2023/11/09 07:54:31;;;;;;;;;;;;;;;33.53;62.78;100551.03;5107190;27;70717;-37
2023/11/09 07:57:01;;;;;;;;;;;;;;;33.56;62.49;100550.56;5107142;27;66945;-37
2023/11/09 07:59:32;;;;;;;;;;;;;;;33.59;62.85;100561.75;5105471;27;70190;-37
2023/11/09 08:02:03;;;;;;;;;;;;;;;33.63;62.52;100566.69;5105004;27;66103;-37
2023/11/09 08:04:32;;;;;;;;;;;;;;;33.65;62.79;100565.38;5096189;27;70679;-37
2023/11/09 08:07:04;;;;;;;;;;;;;;;33.67;62.58;100548.81;5104742;27;66692;-36
2023/11/09 08:09:36;;;;;;;;;;;;;;;33.67;62.46;100549.66;5104792;27;69873;-37
2023/11/09 08:12:06;;;;;;;;;;;;;;;33.69;62.09;100561.13;5105381;27;66397;-36
2023/11/09 08:14:36;;;;;;;;;;;;;;;33.70;62.31;100570.91;5105453;27;69948;-37
2023/11/09 08:17:08;;;;;;;;;;;;;;;33.72;61.80;100578.84;5104089;27;66549;-37
2023/11/09 08:19:51;;;;;;;;;;;;;;;33.73;62.21;100573.13;5081290;27;70335;-38
2023/11/09 08:22:21;;;;;;;;;;;;;;;33.74;62.17;100566.63;5106941;27;66343;-37
2023/11/09 08:24:51;;;;;;;;;;;;;;;33.41;63.41;100569.31;5104019;27;70357;-37
2023/11/09 08:27:21;;;;;;;;;;;;;;;33.18;65.17;100576.47;5103268;27;66037;-38
2023/11/09 08:29:51;;;;;;;;;;;;;;;33.07;66.60;100580.09;5103168;27;70695;-37
2023/11/09 08:32:21;;;;;;;;;;;;;;;33.00;66.88;100584.84;5087130;27;66147;-39
2023/11/09 08:34:54;;;;;;;;;;;;;;;32.88;67.52;100588.41;5101804;27;69713;-38
2023/11/09 08:37:25;;;;;;;;;;;;;;;32.90;67.99;100585.44;5087331;27;66341;-39
2023/11/09 08:39:57;;;;;;;;;;;;;;;32.87;68.69;100591.34;5104026;27;70417;-38
2023/11/09 08:42:27;;;;;;;;;;;;;;;32.85;68.89;100593.50;5104283;27;65726;-38
2023/11/09 08:44:57;;;;;;;;;;;;;;;32.86;69.31;100589.72;5104326;27;70464;-38
2023/11/09 08:47:27;;;;;;;;;;;;;;;32.83;69.91;100598.34;5083627;27;66916;-39
2023/11/09 08:49:57;;;;;;;;;;;;;;;32.82;70.18;100594.81;5099932;27;69758;-39
2023/11/09 08:52:27;;;;;;;;;;;;;;;32.84;70.51;100598.09;5102788;27;66724;-37
2023/11/09 08:54:57;;;;;;;;;;;;;;;32.88;70.97;100609.31;5102265;27;71299;-38
2023/11/09 08:57:31;;;;;;;;;;;;;;;33.07;70.15;100640.72;5100186;27;66195;-37
2023/11/09 09:00:01;;;;;;;;;;;;;;;33.17;70.01;100661.81;5101303;27;69898;-37
2023/11/09 09:02:32;;;;;;;;;;;;;;;33.26;69.69;100665.81;5082220;27;65367;-38
2023/11/09 09:05:02;;;;;;;;;;;;;;;33.32;69.27;100670.28;5101084;27;70961;-38
2023/11/09 09:07:32;;;;;;;;;;;;;;;33.35;69.06;100664.38;5102765;27;66118;-38
2023/11/09 09:10:05;;;;;;;;;;;;;;;33.34;69.17;100646.38;5102487;27;70238;-38
2023/11/09 09:12:35;;;;;;;;;;;;;;;33.38;69.22;100636.69;5101780;27;66466;-39
2023/11/09 09:15:12;;;;;;;;;;;;;;;33.43;68.69;100643.28;5084455;27;70139;-38
2023/11/09 09:17:43;;;;;;;;;;;;;;;33.36;68.54;100649.69;5100633;27;67314;-39
2023/11/09 09:20:15;;;;;;;;;;;;;;;33.37;68.62;100654.06;5102540;27;69137;-38
2023/11/09 09:22:46;;;;;;;;;;;;;;;33.43;68.44;100660.41;5090859;27;66034;-38
2023/11/09 09:25:16;;;;;;;;;;;;;;;33.44;69.06;100655.81;5100034;27;69533;-38
2023/11/09 09:27:47;;;;;;;;;;;;;;;33.41;69.29;100661.75;5100726;27;65057;-38
2023/11/09 09:30:18;;;;;;;;;;;;;;;33.41;69.36;100673.44;5101468;27;69731;-39
2023/11/09 09:32:49;;;;;;;;;;;;;;;33.50;69.11;100682.84;5099463;27;67984;-38
2023/11/09 09:35:20;;;;;;;;;;;;;;;33.49;68.70;100692.09;5080695;27;69060;-37
2023/11/09 09:37:52;;;;;;;;;;;;;;;33.47;69.19;100682.53;5101268;27;66353;-39
2023/11/09 09:40:25;;;;;;;;;;;;;;;33.51;68.82;100683.69;5080522;27;71483;-39
2023/11/09 09:43:07;;;;;;;;;;;;;;;33.49;69.12;100674.94;5101453;27;66185;-38
2023/11/09 09:45:37;;;;;;;;;;;;;;;33.48;69.06;100685.00;5099672;27;69750;-38
2023/11/09 09:48:08;;;;;;;;;;;;;;;33.47;69.34;100687.97;5101428;27;65944;-38
2023/11/09 09:50:38;;;;;;;;;;;;;;;33.47;69.63;100707.00;5104461;27;69083;-37
2023/11/09 09:53:08;;;;;;;;;;;;;;;33.51;69.45;100716.31;5101207;27;66154;-37
2023/11/09 09:55:40;;;;;;;;;;;;;;;33.46;69.67;100735.25;5101933;27;68606;-39
2023/11/09 09:58:11;;;;;;;;;;;;;;;33.43;69.54;100752.03;5101540;27;68338;-38
2023/11/09 10:00:42;;;;;;;;;;;;;;;33.44;69.78;100762.69;5103122;27;70280;-38
2023/11/09 10:03:12;;;;;;;;;;;;;;;33.43;69.83;100773.78;5077593;27;65586;-38
2023/11/09 10:05:43;;;;;;;;;;;;;;;33.44;69.43;100780.91;5102097;27;70569;-38
2023/11/09 10:08:14;;;;;;;;;;;;;;;33.46;69.65;100800.50;5089885;27;66205;-38
2023/11/09 10:10:45;;;;;;;;;;;;;;;33.41;70.16;100803.16;5098666;27;70802;-37
2023/11/09 10:13:18;;;;;;;;;;;;;;;33.42;69.74;100818.38;5099205;27;66549;-37
2023/11/09 10:15:58;;;;;;;;;;;;;;;33.40;69.89;100815.06;5100607;27;70630;-37
2023/11/09 10:18:32;;;;;;;;;;;;;;;33.36;70.08;100818.25;5099773;27;66604;-37
2023/11/09 10:21:03;;;;;;;;;;;;;;;33.34;70.20;100820.38;5089294;27;69974;-38
2023/11/09 10:23:36;;;;;;;;;;;;;;;33.36;69.85;100812.00;5100822;27;66359;-37
2023/11/09 10:26:11;;;;;;;;;;;;;;;33.32;70.39;100818.97;5100036;27;69831;-37
2023/11/09 10:28:43;;;;;;;;;;;;;;;33.31;70.15;100812.72;5097918;27;65752;-37
2023/11/09 10:31:28;;;;;;;;;;;;;;;33.27;70.15;100808.84;5100261;27;69841;-38
2023/11/09 10:33:58;;;;;;;;;;;;;;;33.25;70.44;100794.66;5100922;27;66013;-37
2023/11/09 10:36:29;;;;;;;;;;;;;;;33.25;70.22;100800.06;5099515;27;70362;-37
2023/11/09 10:38:59;;;;;;;;;;;;;;;33.22;70.40;100799.75;5098947;27;66609;-38
2023/11/09 10:41:31;;;;;;;;;;;;;;;32.94;70.44;100761.31;5081945;27;70121;-45
2023/11/09 10:44:24;;;;;;;;;;;;;;;33.21;70.52;100800.78;5099463;27;67200;-38
2023/11/09 10:46:56;;;;;;;;;;;;;;;33.21;70.29;100788.03;5100250;27;70791;-39
2023/11/09 10:49:37;;;;;;;;;;;;;;;33.20;70.44;100775.50;5100713;27;66872;-37
2023/11/09 10:52:08;;;;;;;;;;;;;;;33.19;70.42;100773.84;5102063;27;69961;-38
2023/11/09 10:54:42;;;;;;;;;;;;;;;33.21;70.74;100790.75;5083108;27;66199;-38
2023/11/09 10:57:13;;;;;;;;;;;;;;;33.18;70.63;100799.38;5097765;27;69139;-37
2023/11/09 10:59:45;;;;;;;;;;;;;;;33.21;70.34;100804.34;5098180;27;66614;-37
2023/11/09 11:02:27;;;;;;;;;;;;;;;33.14;71.27;100826.19;5099399;27;70364;-37
2023/11/09 11:05:00;;;;;;;;;;;;;;;33.16;71.67;100845.00;5061147;28;67017;-36
2023/11/09 11:07:31;;;;;;;;;;;;;;;33.16;71.83;100858.59;5099032;27;70634;-38
2023/11/09 11:10:16;;;;;;;;;;;;;;;33.13;71.97;100867.22;5098035;27;66670;-38
2023/11/09 11:12:47;;;;;;;;;;;;;;;33.14;71.86;100885.19;5099600;27;70618;-36
2023/11/09 11:15:20;;;;;;;;;;;;;;;33.16;71.83;100893.94;5099302;27;66034;-37
2023/11/09 11:18:08;;;;;;;;;;;;;;;33.12;71.98;100909.84;5100784;27;70731;-37
2023/11/09 11:20:57;;;;;;;;;;;;;;;33.15;71.89;100908.56;5080973;27;67213;-39
2023/11/09 11:23:51;;;;;;;;;;;;;;;33.11;72.05;100921.81;5081237;27;70019;-37
2023/11/09 11:26:21;;;;;;;;;;;;;;;33.09;72.28;100909.50;5063814;28;66448;-38
2023/11/09 11:28:52;;;;;;;;;;;;;;;33.07;72.00;100896.19;5097455;27;69424;-37
2023/11/09 11:31:22;;;;;;;;;;;;;;;33.08;72.20;100900.53;5088531;27;66361;-38
2023/11/09 11:33:52;;;;;;;;;;;;;;;33.07;72.44;100903.47;5099844;27;70621;-38
2023/11/09 11:36:30;;;;;;;;;;;;;;;33.06;72.35;100909.97;5100779;27;66022;-37
2023/11/09 11:39:12;;;;;;;;;;;;;;;33.07;72.16;100923.34;5087205;27;70593;-37
2023/11/09 11:41:45;;;;;;;;;;;;;;;33.03;72.33;100919.44;5099648;27;65710;-37
2023/11/09 11:44:17;;;;;;;;;;;;;;;32.98;72.59;100924.69;5098864;27;70379;-37
2023/11/09 11:46:58;;;;;;;;;;;;;;;33.03;72.24;100921.31;5098464;27;66098;-36
2023/11/09 11:49:29;;;;;;;;;;;;;;;33.05;72.39;100921.94;5081718;27;69022;-38
2023/11/09 11:51:59;;;;;;;;;;;;;;;33.05;71.85;100935.53;5098279;27;66710;-37
2023/11/09 11:54:29;;;;;;;;;;;;;;;33.06;71.53;100937.16;5065129;27;69711;-38
2023/11/09 11:57:00;;;;;;;;;;;;;;;33.05;71.31;100941.78;5099400;27;66349;-37
2023/11/09 11:59:35;;;;;;;;;;;;;;;33.04;71.22;100951.00;5102203;27;69941;-37
2023/11/09 12:02:09;;;;;;;;;;;;;;;33.03;71.27;100957.47;5100444;27;66816;-38
2023/11/09 12:04:47;;;;;;;;;;;;;;;33.04;71.35;100961.00;5098446;27;70306;-37
2023/11/09 12:07:21;;;;;;;;;;;;;;;33.01;70.93;100973.19;5099938;27;67196;-37
2023/11/09 12:09:55;;;;;;;;;;;;;;;33.00;71.18;100987.84;5082580;27;69801;-39
2023/11/09 12:12:26;;;;;;;;;;;;;;;32.99;71.26;101001.59;5083381;27;66342;-44
2023/11/09 12:14:57;;;;;;;;;;;;;;;32.98;71.23;100997.25;5102240;27;69463;-37
2023/11/09 12:17:26;;;;;;;;;;;;;;;32.98;71.34;100999.97;5099645;27;66690;-38
2023/11/09 12:19:56;;;;;;;;;;;;;;;32.97;71.21;101010.00;5102064;27;70423;-36
2023/11/09 12:22:27;;;;;;;;;;;;;;;32.95;71.35;101017.56;5106556;27;65950;-37
2023/11/09 12:25:00;;;;;;;;;;;;;;;32.93;71.09;101025.97;5103597;27;69848;-39
2023/11/09 12:27:31;;;;;;;;;;;;;;;32.92;70.99;101034.31;5099416;27;66012;-37
2023/11/09 12:30:03;;;;;;;;;;;;;;;32.91;70.73;101041.66;5099855;27;70119;-37
2023/11/09 12:32:33;;;;;;;;;;;;;;;32.88;70.53;101036.69;5102578;27;67167;-39
2023/11/09 12:35:03;;;;;;;;;;;;;;;32.87;70.52;101037.72;5103326;27;71303;-38
2023/11/09 12:37:36;;;;;;;;;;;;;;;32.87;70.28;101031.47;5104489;27;66724;-37
2023/11/09 12:40:06;;;;;;;;;;;;;;;32.85;70.38;101033.59;5102576;27;71161;-37
2023/11/09 12:42:37;;;;;;;;;;;;;;;32.84;70.58;101031.94;5103947;27;66095;-37
2023/11/09 12:45:14;;;;;;;;;;;;;;;32.82;70.35;101040.31;5103919;27;70046;-37
2023/11/09 12:47:45;;;;;;;;;;;;;;;32.67;71.92;101045.31;5103476;27;66877;-37
2023/11/09 12:50:21;;;;;;;;;;;;;;;32.52;73.16;101055.75;5090167;27;69697;-36
2023/11/09 12:52:54;;;;;;;;;;;;;;;32.39;74.05;101052.09;5092849;27;66808;-37
2023/11/09 12:55:24;;;;;;;;;;;;;;;32.32;74.03;101056.78;5078195;27;70974;-37
2023/11/09 12:57:54;;;;;;;;;;;;;;;32.27;74.86;101054.75;5094432;27;66433;-40
2023/11/09 13:00:29;;;;;;;;;;;;;;;32.10;73.41;101056.41;5088662;27;70793;-36
2023/11/09 13:03:02;;;;;;;;;;;;;;;31.97;72.81;101054.63;5087613;27;65422;-37
2023/11/09 13:05:37;;;;;;;;;;;;;;;31.89;72.63;101060.31;5067625;27;70008;-36
2023/11/09 13:08:09;;;;;;;;;;;;;;;31.82;71.90;101056.84;5091803;27;66663;-35